Time;durP1;ratioP1;P1;durP2;ratioP2;P2;SDS_P1;SDS_P2;PMS_P1;PMS_P2;Temp;Humidity;BMP_temperature;BMP_pressure;BME280_temperature;BME280_humidity;BME280_pressure;Samples;Min_cycle;Max_cycle;Signal;HPM_P1;HPM_P2
2022/08/21 00:01:59;;;;;;;8.85;4.50;;;;;;;18.58;83.70;93444.22;5064052;28;20043;-72
2022/08/21 00:04:45;;;;;;;12.55;5.57;;;;;;;18.57;82.90;93439.19;5063792;28;20333;-72
2022/08/21 00:07:10;;;;;;;13.88;5.28;;;;;;;18.52;82.47;93437.63;5063354;28;20028;-73
2022/08/21 00:09:36;;;;;;;21.08;5.22;;;;;;;18.56;83.18;93443.03;5062677;28;20189;-73
2022/08/21 00:12:02;;;;;;;15.15;6.28;;;;;;;18.59;81.85;93436.88;5062410;28;20021;-73
2022/08/21 00:14:28;;;;;;;13.63;5.10;;;;;;;18.48;81.95;93420.63;5063485;28;20224;-73
2022/08/21 00:16:53;;;;;;;15.93;5.75;;;;;;;18.40;82.80;93430.56;5063787;28;20024;-73
2022/08/21 00:19:19;;;;;;;14.32;6.95;;;;;;;18.30;83.13;93433.16;5063611;28;20028;-73
2022/08/21 00:21:44;;;;;;;17.15;6.78;;;;;;;18.24;84.10;93417.34;5063533;28;20052;-74
2022/08/21 00:24:10;;;;;;;12.95;5.88;;;;;;;18.25;84.05;93418.09;5063354;28;20027;-73
2022/08/21 00:26:36;;;;;;;19.40;7.68;;;;;;;18.19;84.57;93414.19;5063357;28;20028;-74
2022/08/21 00:29:01;;;;;;;20.42;7.63;;;;;;;18.17;84.90;93417.25;5063583;28;20333;-74
2022/08/21 00:31:27;;;;;;;14.23;7.95;;;;;;;18.23;84.53;93410.38;5063399;28;20021;-73
2022/08/21 00:33:52;;;;;;;13.90;7.68;;;;;;;18.30;84.86;93420.47;5063291;28;20255;-73
2022/08/21 00:36:18;;;;;;;18.27;8.52;;;;;;;18.34;84.94;93415.88;5063413;28;20088;-73
2022/08/21 00:38:43;;;;;;;18.85;9.13;;;;;;;18.38;85.31;93418.63;5063222;28;20021;-73
2022/08/21 00:41:10;;;;;;;22.65;10.23;;;;;;;18.44;85.14;93425.97;5062728;28;20035;-73
2022/08/21 00:43:37;;;;;;;24.90;10.73;;;;;;;18.39;84.99;93420.91;5062861;28;20020;-73
2022/08/21 00:46:06;;;;;;;16.23;11.20;;;;;;;18.42;84.90;93419.41;5063111;28;20098;-73
2022/08/21 00:48:31;;;;;;;19.05;10.57;;;;;;;18.42;84.31;93419.41;5063150;28;20067;-74
2022/08/21 00:51:06;;;;;;;22.08;9.55;;;;;;;18.50;84.80;93428.31;5062789;28;20270;-73
2022/08/21 00:53:35;;;;;;;18.20;9.25;;;;;;;18.56;84.89;93429.53;5063072;28;20033;-73
2022/08/21 00:56:03;;;;;;;20.08;8.55;;;;;;;18.57;84.73;93423.75;5062954;28;20070;-73
2022/08/21 00:58:30;;;;;;;13.30;8.55;;;;;;;18.61;84.63;93427.25;5062950;28;20052;-73
2022/08/21 01:00:56;;;;;;;16.63;8.18;;;;;;;18.64;84.71;93418.44;5062853;28;20040;-73
2022/08/21 01:03:24;;;;;;;20.15;7.82;;;;;;;18.71;84.52;93419.63;5063159;28;20017;-73
2022/08/21 01:05:50;;;;;;;16.85;6.47;;;;;;;18.73;84.25;93407.31;5063099;28;20033;-73
2022/08/21 01:08:18;;;;;;;13.35;6.15;;;;;;;18.77;84.00;93410.81;5062686;28;20032;-73
2022/08/21 01:10:44;;;;;;;11.57;6.88;;;;;;;18.78;83.62;93411.56;5062954;28;20028;-72
2022/08/21 01:13:13;;;;;;;15.18;7.15;;;;;;;18.75;83.73;93402.31;5062777;28;20021;-73
2022/08/21 01:15:44;;;;;;;13.95;6.82;;;;;;;18.77;83.60;93404.63;5062870;28;20223;-73
2022/08/21 01:18:11;;;;;;;7.47;4.97;;;;;;;18.80;83.39;93398.50;5062835;28;20033;-73
2022/08/21 01:20:37;;;;;;;13.50;6.22;;;;;;;18.82;82.36;93402.38;5065223;28;20056;-73
2022/08/21 01:23:05;;;;;;;12.13;5.07;;;;;;;18.86;83.09;93398.94;5066873;28;20027;-73
2022/08/21 01:25:32;;;;;;;16.27;5.15;;;;;;;18.86;82.82;93391.59;5066810;28;20040;-72
2022/08/21 01:28:02;;;;;;;12.80;5.05;;;;;;;18.86;82.25;93391.59;5066811;28;20025;-73
2022/08/21 01:30:28;;;;;;;13.85;4.25;;;;;;;18.83;81.37;93395.06;5066670;28;20082;-72
2022/08/21 01:32:55;;;;;;;14.75;4.97;;;;;;;18.83;82.05;93395.84;5066706;28;20028;-72
2022/08/21 01:35:21;;;;;;;14.93;4.85;;;;;;;18.85;81.40;93400.88;5066576;28;20316;-73
2022/08/21 01:37:47;;;;;;;9.73;4.18;;;;;;;18.84;82.03;93402.00;5066516;28;20142;-73
2022/08/21 01:40:15;;;;;;;7.43;4.95;;;;;;;18.86;82.32;93402.41;5066538;28;20028;-74
2022/08/21 01:42:41;;;;;;;9.45;3.40;;;;;;;18.86;82.35;93402.41;5066518;28;20051;-73
2022/08/21 01:45:08;;;;;;;10.35;3.55;;;;;;;18.85;81.72;93406.25;5066522;28;20049;-74
2022/08/21 01:47:34;;;;;;;8.40;3.85;;;;;;;18.84;82.19;93410.09;5066526;28;20044;-74
2022/08/21 01:49:59;;;;;;;14.02;3.47;;;;;;;18.78;81.42;93401.53;5066108;28;20040;-74
2022/08/21 01:52:26;;;;;;;9.63;2.90;;;;;;;18.72;79.64;93402.28;5066201;28;20032;-74
2022/08/21 01:54:51;;;;;;;8.88;2.88;;;;;;;18.62;79.87;93399.13;5066519;28;20059;-73
2022/08/21 01:57:17;;;;;;;11.00;3.30;;;;;;;18.54;79.77;93397.53;5066545;28;20021;-73
2022/08/21 01:59:43;;;;;;;14.52;3.28;;;;;;;18.54;80.71;93392.16;5066206;28;20020;-73
2022/08/21 02:02:08;;;;;;;11.30;3.72;;;;;;;18.55;81.34;93403.72;5066026;28;20219;-73
2022/08/21 02:04:33;;;;;;;5.07;3.10;;;;;;;18.53;81.45;93401.38;5066166;28;20025;-73
2022/08/21 02:07:00;;;;;;;9.98;3.58;;;;;;;18.56;82.08;93402.53;5066218;28;20049;-74
2022/08/21 02:09:26;;;;;;;13.38;4.28;;;;;;;18.59;81.84;93405.28;5066056;28;20021;-72
2022/08/21 02:11:52;;;;;;;11.70;4.22;;;;;;;18.59;81.72;93404.50;5065783;28;20025;-72
2022/08/21 02:14:18;;;;;;;9.05;3.50;;;;;;;18.54;80.79;93405.63;5065968;28;20319;-72
2022/08/21 02:16:45;;;;;;;7.90;3.13;;;;;;;18.48;80.71;93415.22;5065979;28;20029;-72
2022/08/21 02:19:11;;;;;;;6.80;3.33;;;;;;;18.47;81.56;93407.50;5065773;28;20021;-74
2022/08/21 02:21:36;;;;;;;10.02;3.75;;;;;;;18.45;81.46;93410.56;5065865;28;20021;-73
2022/08/21 02:24:03;;;;;;;7.20;3.33;;;;;;;18.42;81.69;93408.63;5065818;28;20218;-73
2022/08/21 02:26:28;;;;;;;6.60;2.92;;;;;;;18.40;81.54;93414.38;5065690;28;20021;-74
2022/08/21 02:28:54;;;;;;;10.82;3.85;;;;;;;18.38;81.40;93415.91;5065827;28;20052;-73
2022/08/21 02:31:19;;;;;;;10.85;3.33;;;;;;;18.36;81.24;93421.69;5064314;28;20032;-74
2022/08/21 02:33:45;;;;;;;8.98;3.40;;;;;;;18.35;81.55;93419.34;5065568;28;20078;-74
2022/08/21 02:36:10;;;;;;;7.82;3.90;;;;;;;18.37;81.51;93427.84;5065662;28;20273;-75
2022/08/21 02:38:38;;;;;;;10.38;3.25;;;;;;;18.38;81.79;93421.31;5065347;28;20091;-74
2022/08/21 02:41:09;;;;;;;12.70;3.83;;;;;;;18.35;81.69;93427.44;5065603;28;20025;-75
2022/08/21 02:43:35;;;;;;;10.07;3.63;;;;;;;18.31;81.67;93422.00;5065336;28;20078;-73
2022/08/21 02:46:02;;;;;;;12.98;3.55;;;;;;;18.27;81.18;93423.13;5065284;28;20037;-72
2022/08/21 02:48:32;;;;;;;11.63;4.13;;;;;;;18.25;81.77;93416.16;5065160;28;20043;-73
2022/08/21 02:51:02;;;;;;;8.43;3.50;;;;;;;18.27;82.05;93426.59;5065033;28;20060;-73
2022/08/21 02:53:29;;;;;;;8.75;4.00;;;;;;;18.30;82.01;93423.16;5065239;28;20024;-73
2022/08/21 02:55:58;;;;;;;15.07;5.43;;;;;;;18.31;82.19;93413.16;5065240;28;20021;-72
2022/08/21 02:58:31;;;;;;;11.65;3.78;;;;;;;18.32;81.97;93428.16;5065285;28;20255;-72
2022/08/21 03:00:57;;;;;;;10.77;4.00;;;;;;;18.32;82.09;93420.06;5065016;28;20044;-73
2022/08/21 03:03:24;;;;;;;13.35;3.60;;;;;;;18.33;82.46;93425.09;5063972;28;20051;-73
2022/08/21 03:05:50;;;;;;;17.73;3.72;;;;;;;18.34;82.21;93421.28;5065013;28;20097;-73
2022/08/21 03:08:18;;;;;;;7.18;3.55;;;;;;;18.37;82.31;93425.16;5065053;28;20032;-72
2022/08/21 03:10:48;;;;;;;13.57;4.15;;;;;;;18.38;82.09;93424.00;5064908;28;20095;-73
2022/08/21 03:13:14;;;;;;;10.68;2.92;;;;;;;18.37;82.16;93414.34;5063559;28;20021;-73
2022/08/21 03:15:39;;;;;;;8.38;3.20;;;;;;;18.38;81.52;93414.00;5064724;28;20334;-72
2022/08/21 03:18:06;;;;;;;12.95;3.28;;;;;;;18.41;82.02;93420.56;5064816;28;20028;-72
2022/08/21 03:20:33;;;;;;;9.57;2.80;;;;;;;18.42;81.66;93417.50;5064562;28;20032;-72
2022/08/21 03:22:59;;;;;;;12.98;3.17;;;;;;;18.44;81.49;93419.81;5064752;28;20012;-73
2022/08/21 03:25:26;;;;;;;8.38;2.95;;;;;;;18.40;81.64;93410.91;5064686;28;20025;-74
2022/08/21 03:27:52;;;;;;;13.38;3.70;;;;;;;18.38;81.73;93411.28;5064388;28;20044;-71
2022/08/21 03:30:22;;;;;;;9.93;2.95;;;;;;;18.38;81.99;93413.22;5064217;28;20043;-73
2022/08/21 03:32:48;;;;;;;9.32;3.25;;;;;;;18.38;82.00;93414.00;5064480;28;20052;-74
2022/08/21 03:35:14;;;;;;;6.85;3.38;;;;;;;18.36;81.94;93405.50;5064416;28;20032;-72
2022/08/21 03:37:39;;;;;;;14.68;3.38;;;;;;;18.38;81.92;93415.91;5064192;28;20032;-72
2022/08/21 03:40:07;;;;;;;5.63;3.25;;;;;;;18.40;81.61;93411.69;5064242;28;20025;-73
2022/08/21 03:42:32;;;;;;;13.15;3.38;;;;;;;18.39;81.83;93412.81;5064003;28;20300;-73
2022/08/21 03:44:58;;;;;;;8.90;4.35;;;;;;;18.40;81.81;93403.59;5064316;28;20180;-73
2022/08/21 03:47:24;;;;;;;10.38;3.08;;;;;;;18.43;81.09;93405.53;5064081;28;20068;-72
2022/08/21 03:49:49;;;;;;;11.93;2.83;;;;;;;18.42;81.83;93411.31;5064144;28;20103;-72
2022/08/21 03:52:15;;;;;;;16.52;3.15;;;;;;;18.40;82.15;93408.22;5063974;28;20045;-73
2022/08/21 03:54:41;;;;;;;14.50;4.05;;;;;;;18.32;81.68;93418.19;5064023;28;20020;-73
2022/08/21 03:57:08;;;;;;;8.05;3.60;;;;;;;18.30;81.33;93430.47;5063735;28;20094;-73
2022/08/21 03:59:33;;;;;;;11.02;2.92;;;;;;;18.32;81.96;93423.56;5063811;28;20062;-74
2022/08/21 04:02:02;;;;;;;13.90;3.00;;;;;;;18.33;82.25;93432.44;5063915;28;20017;-73
2022/08/21 04:04:28;;;;;;;9.95;3.25;;;;;;;18.31;81.86;93432.78;5063641;28;20028;-73
2022/08/21 04:06:55;;;;;;;8.40;3.30;;;;;;;18.30;82.15;93430.47;5063859;28;20227;-73
2022/08/21 04:09:20;;;;;;;11.50;3.53;;;;;;;18.29;82.25;93434.31;5063943;28;20021;-73
2022/08/21 04:11:46;;;;;;;14.07;3.47;;;;;;;18.27;81.80;93442.00;5063475;28;20055;-73
2022/08/21 04:14:13;;;;;;;10.55;3.33;;;;;;;18.26;81.72;93430.44;5063630;28;20032;-72
2022/08/21 04:16:39;;;;;;;21.27;3.78;;;;;;;18.22;81.96;93432.34;5063712;28;20110;-84
2022/08/21 04:19:05;;;;;;;10.40;4.18;;;;;;;18.19;82.11;93428.44;5063390;28;20307;-80
2022/08/21 04:21:31;;;;;;;9.73;3.72;;;;;;;18.19;82.46;93431.13;5063839;28;20322;-80
2022/08/21 04:23:58;;;;;;;10.18;3.45;;;;;;;18.22;82.72;93437.75;5063386;28;20044;-81
2022/08/21 04:26:25;;;;;;;10.85;3.75;;;;;;;18.25;82.43;93426.97;5063841;28;20322;-81
2022/08/21 04:28:50;;;;;;;11.35;4.18;;;;;;;18.25;82.12;93416.16;5063572;28;20156;-80
2022/08/21 04:31:16;;;;;;;9.65;3.08;;;;;;;18.32;81.92;93425.47;5063293;28;20025;-81
2022/08/21 04:33:41;;;;;;;12.68;3.53;;;;;;;18.34;81.79;93425.88;5063202;28;20040;-80
2022/08/21 04:36:07;;;;;;;11.25;3.50;;;;;;;18.38;81.71;93427.47;5062137;28;20311;-81
2022/08/21 04:38:33;;;;;;;10.70;3.95;;;;;;;18.42;81.58;93427.50;5063120;28;20231;-81
2022/08/21 04:40:59;;;;;;;13.00;3.70;;;;;;;18.43;81.75;93421.72;5063640;28;20032;-81
2022/08/21 04:43:25;;;;;;;10.50;3.53;;;;;;;18.47;81.56;93418.28;5063275;28;20311;-80
2022/08/21 04:45:51;;;;;;;8.02;3.22;;;;;;;18.51;81.24;93419.09;5063402;28;20028;-81
2022/08/21 04:48:20;;;;;;;12.05;3.50;;;;;;;18.54;81.17;93415.63;5063546;28;20028;-82
2022/08/21 04:51:01;;;;;;;7.20;3.47;;;;;;;18.57;80.51;93423.75;5063030;28;20064;-82
2022/08/21 04:53:45;;;;;;;7.83;3.63;;;;;;;18.57;80.72;93420.28;5062027;28;20251;-82
2022/08/21 04:56:29;;;;;;;16.42;3.92;;;;;;;18.62;79.96;93434.22;5062758;28;20296;-80
2022/08/21 04:58:56;;;;;;;9.75;4.13;;;;;;;18.65;79.64;93430.75;5063177;28;20025;-84
2022/08/21 05:01:24;;;;;;;11.38;4.10;;;;;;;18.67;79.67;93422.31;5062119;28;20024;-82
2022/08/21 05:03:54;;;;;;;12.57;4.07;;;;;;;18.67;80.31;93427.69;5062693;28;20043;-82
2022/08/21 05:06:19;;;;;;;11.20;3.97;;;;;;;18.71;80.13;93428.50;5063067;28;20025;-82
2022/08/21 05:08:48;;;;;;;11.93;5.20;;;;;;;18.75;80.28;93423.91;5061703;28;20044;-81
2022/08/21 05:11:14;;;;;;;15.63;4.53;;;;;;;18.78;79.67;93435.88;5063165;28;20021;-81
2022/08/21 05:13:41;;;;;;;12.38;5.53;;;;;;;18.72;79.82;93435.44;5061864;28;20029;-79
2022/08/21 05:16:07;;;;;;;15.80;5.35;;;;;;;18.71;79.93;93433.91;5063041;28;20100;-83
2022/08/21 05:18:32;;;;;;;11.85;4.72;;;;;;;18.68;79.58;93428.47;5063168;28;20025;-83
2022/08/21 05:20:58;;;;;;;11.10;4.78;;;;;;;18.62;79.89;93428.84;5062871;28;20017;-85
2022/08/21 05:23:24;;;;;;;10.38;5.40;;;;;;;18.62;80.20;93428.84;5061907;28;20049;-80
2022/08/21 05:25:52;;;;;;;16.73;5.80;;;;;;;18.49;80.93;93435.66;5062959;28;20020;-85
2022/08/21 05:28:17;;;;;;;9.20;5.00;;;;;;;18.37;81.96;93439.41;5062989;28;20316;-85
2022/08/21 05:30:43;;;;;;;11.90;5.85;;;;;;;18.36;82.78;93428.97;5062985;28;20021;-84
2022/08/21 05:33:08;;;;;;;12.55;6.05;;;;;;;18.36;83.71;93423.56;5062523;28;20093;-84
2022/08/21 05:35:34;;;;;;;12.35;5.45;;;;;;;18.38;83.69;93416.69;5062647;28;20021;-84
2022/08/21 05:38:00;;;;;;;16.45;5.57;;;;;;;18.35;83.01;93428.22;5062721;28;20028;-85
2022/08/21 05:40:26;;;;;;;13.68;5.13;;;;;;;18.47;82.82;93435.25;5062902;28;20056;-84
2022/08/21 05:42:53;;;;;;;13.73;5.13;;;;;;;18.56;81.90;93427.63;5062868;28;20059;-84
2022/08/21 05:45:19;;;;;;;11.20;5.45;;;;;;;18.61;81.51;93418.41;5061799;28;20113;-85
2022/08/21 05:48:10;;;;;;;10.70;5.65;;;;;;;18.76;81.01;93424.66;5063003;28;20024;-89
2022/08/21 05:51:17;;;;;;;17.27;5.80;;;;;;;18.83;80.88;93414.72;5063095;28;20040;-92
2022/08/21 05:53:44;;;;;;;11.88;5.43;;;;;;;18.93;79.85;93412.47;5060336;28;20350;-88
2022/08/21 05:56:11;;;;;;;10.77;5.18;;;;;;;18.95;79.56;93421.75;5063152;28;20311;-87
2022/08/21 05:58:38;;;;;;;10.70;4.55;;;;;;;18.95;79.87;93415.56;5061889;28;20025;-88
2022/08/21 06:01:04;;;;;;;5.72;4.32;;;;;;;18.97;79.56;93427.56;5062785;28;20017;-79
2022/08/21 06:03:33;;;;;;;14.85;5.72;;;;;;;19.03;81.06;93428.75;5062545;28;20009;-82
2022/08/21 06:05:59;;;;;;;13.50;5.15;;;;;;;19.04;79.64;93426.81;5063571;28;20017;-86
2022/08/21 06:08:48;;;;;;;11.93;4.80;;;;;;;19.01;79.61;93417.53;5067086;28;20350;-89
2022/08/21 06:11:14;;;;;;;12.00;5.18;;;;;;;19.00;78.90;93426.78;5062627;28;20036;-90
2022/08/21 06:13:43;;;;;;;12.60;7.07;;;;;;;18.95;78.33;93426.34;5066842;28;20039;-90
2022/08/21 06:16:25;;;;;;;9.75;5.10;;;;;;;18.90;79.92;93430.19;5067018;28;20044;-89
2022/08/21 06:19:09;;;;;;;13.38;5.07;;;;;;;18.88;81.21;93420.94;5065994;28;20021;-89
2022/08/21 06:21:37;;;;;;;17.90;5.63;;;;;;;18.90;81.30;93418.63;5066932;28;20023;-88
2022/08/21 06:24:04;;;;;;;11.43;5.93;;;;;;;18.91;79.19;93420.16;5066434;28;20176;-86
2022/08/21 06:26:30;;;;;;;10.13;6.05;;;;;;;18.97;78.79;93414.06;5066118;28;20096;-85
2022/08/21 06:28:56;;;;;;;12.75;5.85;;;;;;;19.09;79.34;93420.28;5067523;28;20025;-89
2022/08/21 06:31:34;;;;;;;11.57;6.43;;;;;;;19.28;80.22;93421.94;5066836;28;20024;-90
2022/08/21 06:33:59;;;;;;;11.85;6.05;;;;;;;19.35;77.80;93425.44;5066165;28;20021;-88
2022/08/21 06:36:25;;;;;;;15.18;6.65;;;;;;;19.39;78.15;93420.03;5065298;28;20044;-88
2022/08/21 06:38:55;;;;;;;13.90;5.63;;;;;;;19.43;78.66;93418.91;5066389;28;20346;-91
2022/08/21 06:41:24;;;;;;;14.10;5.57;;;;;;;19.61;76.83;93427.09;5066043;28;20240;-91
2022/08/21 06:43:50;;;;;;;11.48;5.85;;;;;;;19.71;76.75;93422.16;5065544;28;20020;-87
2022/08/21 06:46:15;;;;;;;12.35;5.50;;;;;;;19.76;75.12;93430.66;5065241;28;20269;-86
2022/08/21 06:48:41;;;;;;;12.57;6.13;;;;;;;19.89;75.58;93428.38;5065154;28;20219;-86
2022/08/21 06:51:06;;;;;;;11.40;5.13;;;;;;;19.97;75.90;93429.19;5064867;28;20044;-85
2022/08/21 06:53:32;;;;;;;8.05;4.85;;;;;;;20.16;74.06;93419.94;5065219;28;20028;-86
2022/08/21 06:55:58;;;;;;;8.40;4.88;;;;;;;20.27;72.00;93425.34;5065020;28;20024;-87
2022/08/21 06:58:24;;;;;;;9.75;4.70;;;;;;;20.30;71.57;93438.13;5064912;28;20024;-85
2022/08/21 07:00:54;;;;;;;13.75;4.57;;;;;;;20.34;70.93;93436.19;5065176;28;20235;-85
2022/08/21 07:03:23;;;;;;;9.07;4.22;;;;;;;20.47;71.87;93444.72;5064998;28;20041;-86
2022/08/21 07:05:49;;;;;;;13.13;4.95;;;;;;;20.60;71.95;93443.22;5064866;28;20096;-85
2022/08/21 07:08:15;;;;;;;12.77;4.70;;;;;;;20.74;71.67;93432.38;5064699;28;20025;-83
2022/08/21 07:10:40;;;;;;;10.77;4.68;;;;;;;20.93;72.57;93436.59;5063568;28;20024;-83
2022/08/21 07:13:06;;;;;;;11.38;5.43;;;;;;;21.11;71.14;93433.88;5064667;28;20029;-84
2022/08/21 07:15:31;;;;;;;9.10;4.50;;;;;;;21.24;69.06;93436.94;5064806;28;20036;-86
2022/08/21 07:17:58;;;;;;;9.27;4.47;;;;;;;21.40;68.37;93445.41;5063882;28;20102;-86
2022/08/21 07:20:24;;;;;;;8.82;4.45;;;;;;;21.60;68.55;93448.47;5064749;28;20029;-87
2022/08/21 07:22:50;;;;;;;14.73;5.45;;;;;;;21.76;68.83;93444.56;5064605;28;20279;-80
2022/08/21 07:25:16;;;;;;;12.18;3.45;;;;;;;21.89;68.64;93442.16;5064348;28;20267;-83
2022/08/21 07:27:41;;;;;;;9.68;4.25;;;;;;;22.02;67.23;93429.69;5064317;28;20029;-84
2022/08/21 07:30:07;;;;;;;10.88;3.95;;;;;;;22.18;66.99;93421.84;5064391;28;20316;-85
2022/08/21 07:32:33;;;;;;;9.65;3.75;;;;;;;22.34;66.67;93421.38;5064656;28;20047;-86
2022/08/21 07:34:58;;;;;;;8.45;3.88;;;;;;;22.39;64.21;93414.78;5063230;28;20319;-90
2022/08/21 07:37:24;;;;;;;14.35;4.85;;;;;;;22.49;63.10;93424.78;5064379;28;20025;-85
2022/08/21 07:39:50;;;;;;;10.32;4.88;;;;;;;22.47;63.37;93418.19;5063149;28;20025;-82
2022/08/21 07:42:16;;;;;;;12.40;4.18;;;;;;;22.24;63.42;93423.00;5063223;28;20357;-85
2022/08/21 07:44:42;;;;;;;12.55;4.85;;;;;;;22.08;65.02;93414.53;5063706;28;20025;-78
2022/08/21 07:47:08;;;;;;;12.73;4.55;;;;;;;21.98;64.72;93418.06;5062707;28;20035;-78
2022/08/21 07:49:33;;;;;;;8.65;4.53;;;;;;;21.77;64.45;93422.44;5063788;28;20083;-78
2022/08/21 07:51:59;;;;;;;14.55;4.03;;;;;;;21.62;64.96;93412.84;5063798;28;20025;-79
2022/08/21 07:54:25;;;;;;;10.93;4.20;;;;;;;21.48;65.77;93413.66;5064188;28;20070;-79
2022/08/21 07:56:51;;;;;;;7.85;3.67;;;;;;;21.48;65.98;93410.97;5063863;28;20230;-77
2022/08/21 07:59:16;;;;;;;11.00;5.47;;;;;;;21.55;66.69;93416.34;5064049;28;20021;-78
2022/08/21 08:01:42;;;;;;;12.93;5.32;;;;;;;21.70;64.83;93414.34;5063870;28;20303;-79
2022/08/21 08:04:07;;;;;;;11.05;4.90;;;;;;;21.75;64.02;93407.75;5063687;28;20096;-77
2022/08/21 08:06:33;;;;;;;11.68;4.90;;;;;;;21.63;65.34;93414.38;5063430;28;20303;-77
2022/08/21 08:08:58;;;;;;;15.10;5.28;;;;;;;21.78;65.92;93415.09;5063649;28;20021;-77
2022/08/21 08:11:23;;;;;;;10.20;4.38;;;;;;;21.97;66.06;93424.69;5063549;28;20024;-78
2022/08/21 08:13:52;;;;;;;12.73;4.57;;;;;;;22.15;64.77;93414.50;5063646;28;20025;-78
2022/08/21 08:16:18;;;;;;;9.25;4.18;;;;;;;22.38;62.30;93410.50;5063104;28;20041;-78
2022/08/21 08:18:44;;;;;;;12.02;4.30;;;;;;;22.42;62.40;93414.72;5063379;28;20029;-78
2022/08/21 08:21:11;;;;;;;8.93;4.60;;;;;;;22.47;62.60;93418.19;5063216;28;20046;-79
2022/08/21 08:23:37;;;;;;;12.95;4.47;;;;;;;22.42;62.55;93419.41;5062112;28;20215;-78
2022/08/21 08:26:03;;;;;;;10.23;4.05;;;;;;;22.36;63.83;93416.31;5063437;28;20024;-79
2022/08/21 08:28:31;;;;;;;12.25;4.72;;;;;;;22.38;63.88;93419.41;5063166;28;20424;-79
2022/08/21 08:30:57;;;;;;;7.40;4.22;;;;;;;22.40;62.78;93424.44;5062931;28;20021;-80
2022/08/21 08:33:22;;;;;;;14.35;4.85;;;;;;;22.40;61.80;93416.31;5063469;28;20385;-79
2022/08/21 08:35:50;;;;;;;9.10;4.30;;;;;;;22.44;62.73;93417.06;5063180;28;20192;-79
2022/08/21 08:38:18;;;;;;;13.50;5.15;;;;;;;22.57;63.21;93423.56;5063264;28;20059;-78
2022/08/21 08:40:46;;;;;;;16.48;6.00;;;;;;;22.74;62.81;93413.72;5063322;28;20031;-78
2022/08/21 08:43:13;;;;;;;13.90;5.90;;;;;;;22.85;61.05;93419.06;5062046;28;20036;-79
2022/08/21 08:45:42;;;;;;;10.50;5.07;;;;;;;22.91;61.09;93422.88;5063062;28;20028;-79
2022/08/21 08:48:12;;;;;;;10.93;5.80;;;;;;;22.79;60.62;93413.28;5062468;28;20049;-78
2022/08/21 08:50:50;;;;;;;13.15;6.68;;;;;;;22.94;59.46;93415.84;5062774;28;20048;-78
2022/08/21 08:53:22;;;;;;;11.82;5.07;;;;;;;23.03;59.61;93408.06;5062904;28;20033;-82
2022/08/21 08:55:48;;;;;;;10.45;4.38;;;;;;;23.20;60.53;93406.31;5062631;28;20024;-83
2022/08/21 08:58:34;;;;;;;10.85;4.82;;;;;;;23.38;59.74;93404.19;5062704;28;20100;-81
2022/08/21 09:01:00;;;;;;;13.38;4.57;;;;;;;23.64;59.59;93401.94;5062939;28;20307;-80
2022/08/21 09:03:27;;;;;;;12.70;5.00;;;;;;;23.70;58.25;93399.56;5063647;28;20088;-81
2022/08/21 09:06:08;;;;;;;11.70;4.60;;;;;;;23.88;58.90;93393.94;5062026;28;20027;-82
2022/08/21 09:08:39;;;;;;;9.63;4.80;;;;;;;24.12;58.75;93390.09;5062857;28;20070;-81
2022/08/21 09:11:32;;;;;;;8.52;4.38;;;;;;;24.29;56.28;93385.56;5062741;28;20226;-82
2022/08/21 09:14:18;;;;;;;12.52;5.28;;;;;;;24.40;56.15;93383.44;5062800;28;20196;-82
2022/08/21 09:17:13;;;;;;;15.70;4.00;;;;;;;24.45;56.19;93384.16;5062622;28;20090;-81
2022/08/21 09:19:45;;;;;;;12.20;4.97;;;;;;;24.48;54.55;93381.38;5062746;28;20043;-81
2022/08/21 09:22:50;;;;;;;9.95;4.18;;;;;;;24.42;52.23;93389.25;5062539;28;20270;-83
2022/08/21 09:25:22;;;;;;;11.02;4.53;;;;;;;24.26;56.31;93377.44;5062030;28;20082;-81
2022/08/21 09:27:48;;;;;;;10.02;3.88;;;;;;;24.16;54.05;93377.19;5062456;28;20017;-81
2022/08/21 09:30:14;;;;;;;11.27;4.53;;;;;;;24.01;52.89;93375.84;5062293;28;20027;-82
2022/08/21 09:32:40;;;;;;;7.68;4.20;;;;;;;24.03;52.75;93368.03;5062476;28;20025;-81
2022/08/21 09:35:16;;;;;;;13.38;4.10;;;;;;;24.12;53.50;93372.97;5062437;28;20044;-82
2022/08/21 09:37:52;;;;;;;8.75;4.50;;;;;;;24.11;54.50;93369.47;5062267;28;20081;-81
2022/08/21 09:40:32;;;;;;;11.88;4.63;;;;;;;24.05;53.75;93376.56;5062929;28;20021;-81
2022/08/21 09:43:06;;;;;;;13.45;4.55;;;;;;;23.92;53.45;93372.88;5064668;28;20036;-81
2022/08/21 09:45:33;;;;;;;14.35;5.22;;;;;;;23.88;54.01;93372.91;5065165;28;20032;-81
2022/08/21 09:48:10;;;;;;;17.50;5.13;;;;;;;23.77;54.19;93366.84;5066263;28;20032;-81
2022/08/21 09:50:36;;;;;;;16.95;4.78;;;;;;;23.68;54.00;93364.59;5066183;28;20065;-82
2022/08/21 09:53:03;;;;;;;9.55;4.40;;;;;;;23.53;54.26;93368.66;5066297;28;20083;-81
2022/08/21 09:58:32;;;;;;;8.65;4.38;;;;;;;23.77;56.16;93367.63;5066510;28;20403;-78
2022/08/21 10:01:04;;;;;;;11.68;4.78;;;;;;;23.79;56.07;93359.03;5064972;28;20369;-78
2022/08/21 10:03:30;;;;;;;11.48;4.10;;;;;;;23.83;56.23;93363.28;5065688;28;20222;-78
2022/08/21 10:06:09;;;;;;;16.55;5.00;;;;;;;24.12;56.34;93349.25;5065033;28;20045;-78
2022/08/21 10:08:38;;;;;;;13.13;4.32;;;;;;;24.31;55.67;93350.50;5065976;28;20096;-78
2022/08/21 10:11:08;;;;;;;10.98;4.88;;;;;;;24.47;55.21;93360.78;5065741;28;20025;-78
2022/08/21 10:14:01;;;;;;;9.02;4.30;;;;;;;24.54;53.38;93357.19;5063683;28;20319;-79
2022/08/21 10:16:35;;;;;;;12.68;4.07;;;;;;;24.81;54.93;93348.94;5064172;28;20098;-78
2022/08/21 10:19:21;;;;;;;21.33;5.38;;;;;;;24.97;53.98;93346.34;5063661;28;20092;-78
2022/08/21 10:22:02;;;;;;;12.98;5.05;;;;;;;25.22;53.43;93350.59;5062989;28;20326;-78
2022/08/21 10:24:42;;;;;;;9.85;4.97;;;;;;;25.37;53.37;93349.09;5063746;28;20335;-77
2022/08/21 10:27:22;;;;;;;9.00;3.92;;;;;;;25.62;53.55;93337.69;5063726;28;20051;-78
2022/08/21 10:29:55;;;;;;;7.47;4.35;;;;;;;25.87;50.93;93343.78;5065513;28;20024;-77
2022/08/21 10:32:37;;;;;;;11.75;4.90;;;;;;;25.92;49.85;93343.34;5065703;28;20024;-77
2022/08/21 10:35:02;;;;;;;;;;;;;;;26.12;50.76;93333.13;5066005;28;20037;-77
2022/08/21 10:37:45;;;;;;;11.77;3.92;;;;;;;26.35;50.70;93326.72;5065621;28;19912;-77
2022/08/21 10:40:29;;;;;;;15.00;5.20;;;;;;;26.64;50.21;93322.56;5065188;28;20265;-81
2022/08/21 10:43:04;;;;;;;11.70;4.05;;;;;;;26.73;49.28;93336.41;5065253;28;20081;-76
2022/08/21 10:45:44;;;;;;;10.05;4.20;;;;;;;26.86;48.30;93328.25;5065016;28;20035;-76
2022/08/21 10:48:22;;;;;;;10.80;3.95;;;;;;;26.93;49.01;93328.09;5065275;28;20047;-77
2022/08/21 10:50:59;;;;;;;10.93;5.03;;;;;;;26.87;48.14;93308.69;5064894;28;20045;-76
2022/08/21 10:53:46;;;;;;;15.35;5.03;;;;;;;26.90;48.20;93309.78;5064084;28;20028;-77
2022/08/21 10:56:20;;;;;;;12.10;4.30;;;;;;;26.98;48.81;93314.63;5065057;28;20033;-77
2022/08/21 10:59:16;;;;;;;15.38;4.25;;;;;;;27.00;46.60;93312.25;5065084;28;20079;-76
2022/08/21 11:01:50;;;;;;;8.40;4.30;;;;;;;26.92;46.71;93305.44;5065080;28;20339;-77
2022/08/21 11:04:23;;;;;;;11.98;4.68;;;;;;;26.93;46.57;93306.22;5064909;28;20243;-77
2022/08/21 11:07:09;;;;;;;6.65;3.95;;;;;;;26.94;46.96;93296.81;5064842;28;20024;-77
2022/08/21 11:09:44;;;;;;;8.05;3.92;;;;;;;27.09;46.67;93297.19;5064796;28;20035;-76
2022/08/21 11:12:31;;;;;;;7.25;4.05;;;;;;;27.10;45.71;93282.31;5064650;28;20039;-76
2022/08/21 11:15:04;;;;;;;10.88;4.03;;;;;;;27.09;45.93;93278.03;5064479;28;20381;-76
2022/08/21 11:17:42;;;;;;;9.20;4.30;;;;;;;26.93;46.57;93290.56;5064637;28;20127;-76
2022/08/21 11:20:13;;;;;;;15.82;4.22;;;;;;;26.97;45.34;93291.25;5064561;28;20017;-76
2022/08/21 11:23:37;;;;;;;7.07;3.70;;;;;;;27.06;45.49;93284.38;5063286;28;20074;-76
2022/08/21 11:26:12;;;;;;;9.48;3.88;;;;;;;27.01;44.39;93277.47;5052216;28;20020;-76
2022/08/21 11:28:47;;;;;;;7.05;3.17;;;;;;;26.95;45.17;93282.69;5063809;28;20092;-76
2022/08/21 11:31:13;;;;;;;7.88;3.50;;;;;;;26.93;45.61;93273.41;5063413;28;20031;-76
2022/08/21 11:34:15;;;;;;;9.60;3.65;;;;;;;26.95;44.77;93279.97;5063548;28;20295;-76
2022/08/21 11:36:51;;;;;;;;;;;;;;;26.98;43.95;93276.34;5064127;28;20021;-76
2022/08/21 11:39:25;;;;;;;7.97;2.85;;;;;;;26.94;44.47;93275.69;5062972;28;19905;-76
2022/08/21 11:42:14;;;;;;;8.52;3.60;;;;;;;26.99;44.71;93272.44;5064601;28;20016;-76